createdAt,value
2018-12-16T00:00:49.945Z,43.50
2018-12-16T00:01:49.864Z,42.60
2018-12-16T00:02:49.855Z,44.30
2018-12-16T00:03:49.841Z,43.30
2018-12-16T00:04:50.211Z,42.70
2018-12-16T00:05:49.820Z,43.20
2018-12-16T00:06:49.805Z,44.50
2018-12-16T00:07:49.796Z,42.70
2018-12-16T00:08:49.785Z,43.00
2018-12-16T00:09:49.773Z,44.30
2018-12-16T00:10:49.760Z,42.10
2018-12-16T00:11:49.753Z,42.90
2018-12-16T00:12:49.734Z,43.10
2018-12-16T00:13:49.727Z,42.30
2018-12-16T00:14:49.710Z,42.20
2018-12-16T00:15:49.703Z,42.10
2018-12-16T00:16:49.693Z,43.40
2018-12-16T00:17:49.676Z,41.40
2018-12-16T00:18:49.663Z,41.60
2018-12-16T00:19:49.650Z,40.70
2018-12-16T00:20:49.639Z,42.40
2018-12-16T00:21:49.625Z,40.40
2018-12-16T00:22:49.618Z,42.00
2018-12-16T00:23:49.601Z,41.40
2018-12-16T00:24:49.593Z,40.70
2018-12-16T00:25:49.582Z,40.40
2018-12-16T00:26:49.591Z,41.80
2018-12-16T00:27:49.559Z,40.30
2018-12-16T00:28:49.552Z,40.10
2018-12-16T00:29:49.531Z,40.50
2018-12-16T00:30:49.521Z,40.20
2018-12-16T00:31:49.521Z,39.90
2018-12-16T00:32:49.499Z,40.40
2018-12-16T00:33:49.483Z,40.30
2018-12-16T00:34:49.473Z,39.30
2018-12-16T00:35:49.463Z,40.50
2018-12-16T00:36:49.448Z,38.80
2018-12-16T00:37:49.437Z,39.20
2018-12-16T00:38:49.426Z,39.70
2018-12-16T00:39:49.414Z,40.80
2018-12-16T00:40:49.399Z,38.80
2018-12-16T00:41:49.387Z,38.80
2018-12-16T00:42:49.381Z,39.80
2018-12-16T00:43:49.366Z,39.40
2018-12-16T00:44:49.354Z,38.20
2018-12-16T00:45:49.341Z,39.90
2018-12-16T00:46:49.330Z,39.20
2018-12-16T00:47:49.319Z,40.30
2018-12-16T00:48:49.305Z,40.40
2018-12-16T00:49:49.295Z,38.90
2018-12-16T00:50:49.280Z,40.90
2018-12-16T00:51:49.271Z,40.00
2018-12-16T00:52:49.259Z,40.10
2018-12-16T00:53:49.249Z,40.10
2018-12-16T00:54:49.235Z,39.90
2018-12-16T00:55:49.236Z,39.90
2018-12-16T00:56:49.212Z,40.20
2018-12-16T00:57:49.197Z,39.80
2018-12-16T00:58:49.185Z,38.70
2018-12-16T00:59:49.181Z,39.60
2018-12-16T01:00:49.164Z,40.10
2018-12-16T01:01:49.152Z,39.60
2018-12-16T01:02:49.141Z,38.80
2018-12-16T01:03:49.131Z,40.00
2018-12-16T01:04:49.117Z,39.70
2018-12-16T01:05:49.107Z,39.00
2018-12-16T01:06:49.095Z,39.10
2018-12-16T01:07:49.080Z,39.00
2018-12-16T01:08:49.068Z,40.20
2018-12-16T01:09:49.060Z,38.30
2018-12-16T01:10:49.046Z,39.50
2018-12-16T01:11:49.030Z,38.90
2018-12-16T01:12:49.022Z,39.00
2018-12-16T01:13:49.016Z,38.60
2018-12-16T01:14:48.997Z,38.20
2018-12-16T01:15:48.986Z,38.60
2018-12-16T01:16:48.980Z,36.80
2018-12-16T01:17:48.960Z,36.40
2018-12-16T01:18:48.946Z,37.10
2018-12-16T01:19:48.939Z,36.70
2018-12-16T01:20:48.926Z,35.70
2018-12-16T01:21:48.912Z,35.70
2018-12-16T01:22:48.904Z,33.20
2018-12-16T01:23:48.892Z,36.90
2018-12-16T01:24:48.877Z,35.10
2018-12-16T01:25:48.865Z,34.80
2018-12-16T01:26:48.855Z,34.90
2018-12-16T01:27:48.844Z,35.10
2018-12-16T01:28:48.831Z,34.00
2018-12-16T01:29:48.818Z,34.10
2018-12-16T01:30:48.810Z,33.40
2018-12-16T01:31:48.800Z,32.60
2018-12-16T01:32:48.780Z,33.70
2018-12-16T01:33:48.768Z,32.70
2018-12-16T01:34:48.761Z,31.20
2018-12-16T01:35:48.748Z,31.70
2018-12-16T01:36:48.734Z,31.90
2018-12-16T01:37:48.722Z,31.10
2018-12-16T01:38:48.711Z,29.70
2018-12-16T01:39:48.694Z,30.80
2018-12-16T01:40:48.680Z,31.20
2018-12-16T01:41:48.673Z,29.00
2018-12-16T01:42:48.661Z,29.80
2018-12-16T01:43:48.648Z,29.70
2018-12-16T01:44:48.641Z,29.60
2018-12-16T01:45:48.627Z,29.80
2018-12-16T01:46:48.616Z,29.80
2018-12-16T01:47:48.598Z,30.50
2018-12-16T01:48:48.589Z,29.40
2018-12-16T01:49:48.579Z,29.90
2018-12-16T01:50:48.568Z,29.70
2018-12-16T01:51:48.554Z,29.70
2018-12-16T01:52:50.374Z,29.50
2018-12-16T01:53:48.529Z,28.20
2018-12-16T01:54:48.512Z,29.10
2018-12-16T01:55:48.509Z,29.10
2018-12-16T01:56:48.491Z,28.10
2018-12-16T01:57:48.481Z,28.00
2018-12-16T01:58:48.479Z,27.20
2018-12-16T01:59:48.460Z,28.40
2018-12-16T02:00:48.446Z,28.10
2018-12-16T02:01:48.441Z,27.40
2018-12-16T02:02:48.421Z,27.50
2018-12-16T02:03:48.409Z,25.90
2018-12-16T02:04:48.396Z,26.70
2018-12-16T02:05:48.384Z,25.60
2018-12-16T02:06:48.372Z,25.70
2018-12-16T02:07:48.360Z,26.10
2018-12-16T02:08:48.345Z,25.80
2018-12-16T02:09:48.338Z,25.30
2018-12-16T02:10:48.330Z,25.90
2018-12-16T02:11:48.312Z,25.10
2018-12-16T02:12:48.303Z,25.50
2018-12-16T02:13:48.290Z,24.40
2018-12-16T02:14:48.284Z,25.60
2018-12-16T02:15:48.264Z,24.60
2018-12-16T02:16:48.257Z,25.00
2018-12-16T02:17:48.237Z,24.80
2018-12-16T02:18:48.230Z,24.30
2018-12-16T02:19:48.221Z,24.50
2018-12-16T02:20:48.203Z,25.20
2018-12-16T02:21:48.193Z,24.70
2018-12-16T02:22:48.180Z,24.20
2018-12-16T02:23:48.171Z,24.60
2018-12-16T02:24:48.155Z,24.70
2018-12-16T02:25:48.143Z,24.50
2018-12-16T02:26:48.135Z,25.00
2018-12-16T02:27:48.122Z,24.70
2018-12-16T02:28:48.110Z,24.00
2018-12-16T02:29:48.101Z,24.10
2018-12-16T02:30:48.088Z,23.90
2018-12-16T02:31:48.626Z,23.90
2018-12-16T02:32:48.061Z,23.70
2018-12-16T02:33:48.057Z,23.70
2018-12-16T02:34:48.044Z,23.70
2018-12-16T02:35:48.030Z,23.70
2018-12-16T02:36:48.020Z,22.80
2018-12-16T02:37:48.003Z,23.20
2018-12-16T02:38:47.993Z,22.50
2018-12-16T02:39:47.981Z,22.40
2018-12-16T02:40:47.967Z,21.50
2018-12-16T02:41:47.957Z,22.20
2018-12-16T02:42:47.949Z,22.20
2018-12-16T02:43:47.934Z,22.40
2018-12-16T02:44:47.923Z,22.00
2018-12-16T02:45:47.912Z,21.90
2018-12-16T02:46:47.906Z,21.50
2018-12-16T02:47:47.900Z,20.80
2018-12-16T02:48:47.891Z,19.80
2018-12-16T02:49:47.874Z,20.10
2018-12-16T02:50:47.858Z,19.80
2018-12-16T02:51:47.842Z,20.10
2018-12-16T02:52:47.836Z,19.70
2018-12-16T02:53:47.816Z,19.90
2018-12-16T02:54:47.805Z,19.60
2018-12-16T02:55:47.803Z,19.90
2018-12-16T02:56:47.783Z,19.70
2018-12-16T02:57:47.774Z,19.20
2018-12-16T02:58:47.760Z,19.00
2018-12-16T02:59:47.751Z,18.40
2018-12-16T03:00:47.735Z,18.60
2018-12-16T03:01:47.726Z,18.20
2018-12-16T03:02:47.715Z,18.60
2018-12-16T03:03:47.703Z,18.30
2018-12-16T03:04:47.687Z,19.50
2018-12-16T03:05:47.674Z,19.50
2018-12-16T03:06:47.672Z,19.40
2018-12-16T03:07:47.652Z,18.90
2018-12-16T03:08:47.641Z,18.10
2018-12-16T03:09:47.635Z,17.70
2018-12-16T03:10:47.620Z,18.20
2018-12-16T03:11:47.607Z,17.30
2018-12-16T03:12:47.594Z,18.40
2018-12-16T03:13:47.585Z,17.40
2018-12-16T03:14:47.574Z,17.30
2018-12-16T03:15:47.592Z,16.80
2018-12-16T03:16:47.549Z,15.70
2018-12-16T03:17:47.540Z,15.50
2018-12-16T03:18:47.527Z,14.10
2018-12-16T03:19:47.519Z,14.80
2018-12-16T03:20:47.502Z,14.60
2018-12-16T03:21:47.495Z,14.40
2018-12-16T03:22:47.482Z,14.70
2018-12-16T03:23:47.469Z,14.80
2018-12-16T03:24:47.461Z,15.20
2018-12-16T03:25:47.443Z,14.50
2018-12-16T03:26:47.436Z,14.60
2018-12-16T03:27:47.423Z,14.90
2018-12-16T03:28:47.413Z,15.30
2018-12-16T03:29:47.401Z,14.50
2018-12-16T03:30:47.517Z,14.70
2018-12-16T03:31:47.378Z,14.30
2018-12-16T03:32:47.381Z,13.50
2018-12-16T03:33:47.348Z,13.00
2018-12-16T03:34:47.340Z,13.50
2018-12-16T03:35:47.336Z,12.80
2018-12-16T03:36:47.323Z,13.00
2018-12-16T03:37:47.307Z,13.30
2018-12-16T03:38:47.295Z,13.90
2018-12-16T03:39:47.284Z,15.30
2018-12-16T03:40:47.268Z,16.40
2018-12-16T03:41:47.259Z,16.40
2018-12-16T03:42:47.252Z,17.90
2018-12-16T03:43:47.234Z,18.30
2018-12-16T03:44:47.221Z,18.40
2018-12-16T03:45:47.214Z,18.10
2018-12-16T03:46:47.199Z,17.80
2018-12-16T03:47:47.190Z,18.70
2018-12-16T03:48:47.184Z,19.20
2018-12-16T03:49:47.171Z,18.50
2018-12-16T03:50:47.154Z,19.70
2018-12-16T03:51:47.147Z,19.40
2018-12-16T03:52:47.136Z,19.30
2018-12-16T03:53:47.118Z,19.80
2018-12-16T03:54:47.107Z,20.10
2018-12-16T03:55:47.097Z,21.20
2018-12-16T03:56:47.082Z,20.50
2018-12-16T03:57:47.070Z,20.80
2018-12-16T03:58:47.060Z,21.30
2018-12-16T03:59:47.053Z,20.80
2018-12-16T04:00:47.037Z,21.00
2018-12-16T04:01:47.028Z,21.20
2018-12-16T04:02:47.015Z,21.90
2018-12-16T04:03:47.005Z,21.60
2018-12-16T04:04:46.990Z,21.50
2018-12-16T04:05:46.982Z,22.20
2018-12-16T04:06:46.970Z,23.80
2018-12-16T04:07:46.954Z,23.70
2018-12-16T04:08:46.940Z,24.60
2018-12-16T04:09:46.940Z,23.90
2018-12-16T04:10:46.919Z,24.80
2018-12-16T04:11:46.908Z,24.90
2018-12-16T04:12:46.903Z,24.80
2018-12-16T04:13:46.885Z,25.40
2018-12-16T04:14:46.874Z,26.20
2018-12-16T04:15:46.867Z,26.50
2018-12-16T04:16:46.847Z,25.90
2018-12-16T04:17:46.837Z,26.80
2018-12-16T04:18:46.830Z,25.80
2018-12-16T04:19:46.820Z,26.40
2018-12-16T04:20:46.800Z,26.50
2018-12-16T04:21:46.787Z,26.30
2018-12-16T04:22:46.778Z,27.10
2018-12-16T04:23:46.766Z,26.70
2018-12-16T04:24:46.755Z,26.90
2018-12-16T04:25:46.744Z,27.50
2018-12-16T04:26:46.732Z,27.30
2018-12-16T04:27:46.721Z,27.10
2018-12-16T04:28:46.706Z,26.70
2018-12-16T04:29:46.699Z,26.60
2018-12-16T04:30:46.683Z,27.80
2018-12-16T04:31:46.673Z,27.80
2018-12-16T04:32:46.675Z,28.50
2018-12-16T04:33:46.649Z,27.70
2018-12-16T04:34:46.639Z,28.50
2018-12-16T04:35:46.624Z,28.10
2018-12-16T04:36:46.624Z,28.50
2018-12-16T04:37:46.598Z,28.60
2018-12-16T04:38:46.589Z,28.00
2018-12-16T04:39:46.582Z,28.90
2018-12-16T04:40:46.563Z,28.60
2018-12-16T04:41:46.553Z,29.00
2018-12-16T04:42:46.541Z,29.20
2018-12-16T04:43:46.531Z,29.40
2018-12-16T04:44:46.516Z,29.40
2018-12-16T04:45:46.506Z,30.00
2018-12-16T04:46:46.498Z,29.70
2018-12-16T04:47:46.481Z,29.40
2018-12-16T04:48:46.468Z,30.10
2018-12-16T04:49:46.460Z,30.20
2018-12-16T04:50:46.445Z,29.60
2018-12-16T04:51:46.436Z,28.90
2018-12-16T04:52:46.462Z,31.70
2018-12-16T04:53:46.409Z,30.50
2018-12-16T04:54:46.399Z,30.10
2018-12-16T04:55:46.385Z,30.20
2018-12-16T04:56:46.370Z,30.60
2018-12-16T04:57:46.362Z,30.40
2018-12-16T04:58:46.350Z,30.40
2018-12-16T04:59:46.338Z,29.60
2018-12-16T05:00:46.333Z,29.80
2018-12-16T05:01:46.313Z,29.20
2018-12-16T05:02:46.303Z,30.30
2018-12-16T05:03:46.296Z,30.30
2018-12-16T05:04:46.275Z,30.00
2018-12-16T05:05:46.263Z,29.70
2018-12-16T05:06:46.256Z,30.20
2018-12-16T05:07:46.244Z,30.10
2018-12-16T05:08:46.230Z,29.20
2018-12-16T05:09:46.220Z,30.30
2018-12-16T05:10:46.206Z,29.60
2018-12-16T05:11:46.193Z,31.00
2018-12-16T05:12:46.184Z,30.70
2018-12-16T05:13:46.171Z,30.00
2018-12-16T05:14:46.163Z,29.90
2018-12-16T05:15:46.145Z,31.10
2018-12-16T05:16:46.139Z,31.10
2018-12-16T05:17:46.126Z,31.20
2018-12-16T05:18:46.113Z,30.50
2018-12-16T05:19:46.104Z,32.00
2018-12-16T05:20:46.085Z,32.40
2018-12-16T05:21:46.074Z,30.00
2018-12-16T05:22:46.064Z,31.30
2018-12-16T05:23:46.052Z,30.20
2018-12-16T05:24:46.037Z,31.60
2018-12-16T05:25:46.054Z,31.70
2018-12-16T05:26:46.014Z,31.50
2018-12-16T05:27:46.053Z,31.10
2018-12-16T05:28:45.992Z,31.60
2018-12-16T05:29:45.979Z,30.90
2018-12-16T05:30:45.972Z,30.90
2018-12-16T05:31:45.958Z,30.50
2018-12-16T05:32:45.950Z,30.20
2018-12-16T05:33:45.939Z,30.10
2018-12-16T05:34:45.926Z,29.90
2018-12-16T05:35:45.903Z,29.70
2018-12-16T05:36:45.894Z,30.40
2018-12-16T05:37:45.886Z,31.10
2018-12-16T05:38:45.869Z,30.40
2018-12-16T05:39:45.856Z,30.90
2018-12-16T05:40:45.847Z,30.60
2018-12-16T05:41:45.837Z,31.30
2018-12-16T05:42:45.827Z,31.00
2018-12-16T05:43:45.820Z,31.60
2018-12-16T05:44:45.798Z,30.40
2018-12-16T05:45:45.790Z,31.90
2018-12-16T05:46:45.773Z,30.80
2018-12-16T05:47:45.764Z,30.70
2018-12-16T05:48:45.758Z,31.30
2018-12-16T05:49:45.739Z,30.50
2018-12-16T05:50:45.735Z,30.30
2018-12-16T05:51:45.717Z,31.70
2018-12-16T05:52:45.704Z,31.30
2018-12-16T05:53:48.581Z,31.30
2018-12-16T05:54:45.765Z,30.50
2018-12-16T05:55:45.675Z,30.70
2018-12-16T05:56:45.656Z,31.10
2018-12-16T05:57:45.642Z,30.30
2018-12-16T06:00:17.789Z,30.20
2018-12-16T06:01:17.755Z,29.60
2018-12-16T06:03:11.128Z,29.20
2018-12-16T06:04:11.112Z,29.90
2018-12-16T06:06:04.499Z,28.90
2018-12-16T06:07:04.470Z,30.30
2018-12-16T06:08:58.395Z,29.40
2018-12-16T06:09:57.826Z,28.80
2018-12-16T06:11:51.215Z,29.60
2018-12-16T06:12:51.180Z,28.80
2018-12-16T06:14:44.065Z,29.70
2018-12-16T06:15:44.047Z,30.50
2018-12-16T06:17:37.436Z,31.40
2018-12-16T06:18:37.406Z,29.10
2018-12-16T06:20:30.790Z,30.00
2018-12-16T06:21:30.756Z,29.90
2018-12-16T06:23:23.641Z,29.50
2018-12-16T06:24:23.625Z,30.30
2018-12-16T06:26:16.512Z,30.60
2018-12-16T06:27:16.477Z,30.60
2018-12-16T06:29:09.854Z,30.00
2018-12-16T06:30:09.839Z,30.00
2018-12-16T06:32:03.227Z,30.40
2018-12-16T06:33:03.196Z,30.50
2018-12-16T06:34:56.567Z,31.00
2018-12-16T06:35:56.552Z,31.70
2018-12-16T06:37:49.938Z,31.00
2018-12-16T06:38:49.908Z,30.20
2018-12-16T06:40:42.803Z,32.80
2018-12-16T06:41:42.772Z,30.60
2018-12-16T06:43:36.141Z,29.80
2018-12-16T06:44:36.128Z,30.00
2018-12-16T06:46:29.523Z,30.20
2018-12-16T06:47:29.484Z,30.30
2018-12-16T06:49:22.866Z,30.30
2018-12-16T06:50:22.852Z,30.70
2018-12-16T06:52:16.250Z,29.70
2018-12-16T06:53:16.208Z,30.40
2018-12-16T06:55:09.575Z,29.20
2018-12-16T06:56:09.560Z,28.60
2018-12-16T06:58:02.949Z,27.90
2018-12-16T06:59:02.917Z,29.40
2018-12-16T07:00:56.304Z,29.60
2018-12-16T07:01:56.271Z,30.10
2018-12-16T07:03:49.641Z,28.00
2018-12-16T07:04:49.627Z,28.60
2018-12-16T07:06:43.024Z,27.70
2018-12-16T07:07:42.988Z,28.00
2018-12-16T07:09:36.375Z,27.90
2018-12-16T07:10:36.366Z,27.60
2018-12-16T07:12:29.752Z,28.60
2018-12-16T07:13:29.714Z,28.10
2018-12-16T07:15:23.087Z,28.40
2018-12-16T07:16:23.071Z,28.50
2018-12-16T07:18:16.464Z,25.00
2018-12-16T07:19:16.429Z,25.10
2018-12-16T07:21:09.814Z,24.90
2018-12-16T07:22:09.783Z,25.00
2018-12-16T07:24:09.023Z,24.80
2018-12-16T07:25:03.159Z,24.60
2018-12-16T07:26:56.547Z,24.40
2018-12-16T07:27:56.515Z,24.30
2018-12-16T07:29:49.889Z,24.10
2018-12-16T07:30:49.872Z,24.30
2018-12-16T07:32:43.265Z,23.50
2018-12-16T07:33:44.594Z,23.70
2018-12-16T07:35:36.604Z,24.00
2018-12-16T07:36:36.585Z,21.70
2018-12-16T07:37:36.607Z,22.50
2018-12-16T07:38:36.575Z,20.10
2018-12-16T07:39:36.544Z,20.90
2018-12-16T07:40:36.537Z,21.80
2018-12-16T07:41:36.525Z,21.50
2018-12-16T07:42:36.514Z,22.10
2018-12-16T07:43:36.503Z,21.20
2018-12-16T07:44:36.493Z,21.10
2018-12-16T07:45:36.477Z,21.90
2018-12-16T07:46:36.481Z,20.90
2018-12-16T07:47:36.461Z,21.60
2018-12-16T07:48:36.448Z,21.60
2018-12-16T07:49:36.489Z,22.10
2018-12-16T07:50:36.416Z,21.80
2018-12-16T07:51:36.428Z,22.60
2018-12-16T07:52:36.438Z,21.60
2018-12-16T07:53:36.408Z,21.80
2018-12-16T07:54:36.372Z,20.50
2018-12-16T07:55:36.357Z,20.80
2018-12-16T07:56:36.357Z,21.40
2018-12-16T07:57:36.336Z,20.90
2018-12-16T07:58:36.328Z,20.40
2018-12-16T07:59:36.316Z,20.20
2018-12-16T08:00:36.320Z,19.80
2018-12-16T08:01:36.322Z,19.80
2018-12-16T08:02:36.274Z,21.20
2018-12-16T08:03:36.288Z,20.80
2018-12-16T08:04:36.258Z,20.90
2018-12-16T08:05:36.245Z,20.20
2018-12-16T08:06:36.250Z,20.50
2018-12-16T08:07:36.214Z,20.70
2018-12-16T08:08:36.205Z,21.30
2018-12-16T08:09:36.194Z,20.50
2018-12-16T08:10:36.192Z,19.30
2018-12-16T08:11:36.171Z,19.50
2018-12-16T08:12:36.159Z,19.20
2018-12-16T08:13:36.151Z,19.00
2018-12-16T08:14:36.135Z,18.50
2018-12-16T08:15:36.123Z,19.00
2018-12-16T08:16:36.111Z,18.30
2018-12-16T08:17:36.099Z,18.40
2018-12-16T08:18:36.085Z,19.20
2018-12-16T08:19:36.078Z,18.50
2018-12-16T08:20:36.065Z,19.60
2018-12-16T08:21:36.056Z,19.30
2018-12-16T08:22:36.038Z,18.60
2018-12-16T08:23:36.028Z,18.30
2018-12-16T08:24:36.029Z,16.20
2018-12-16T08:25:36.003Z,16.70
2018-12-16T08:26:35.999Z,16.40
2018-12-16T08:27:35.976Z,17.40
2018-12-16T08:28:36.587Z,17.20
2018-12-16T08:29:35.963Z,16.80
2018-12-16T08:30:35.960Z,18.30
2018-12-16T08:31:35.932Z,18.90
2018-12-16T08:32:35.923Z,18.60
2018-12-16T08:33:35.909Z,18.20
2018-12-16T08:34:35.900Z,18.70
2018-12-16T08:35:35.889Z,18.60
2018-12-16T08:36:35.877Z,18.60
2018-12-16T08:37:35.865Z,18.70
2018-12-16T08:38:35.858Z,18.10
2018-12-16T08:39:35.838Z,18.80
2018-12-16T08:40:35.831Z,18.30
2018-12-16T08:41:35.818Z,18.30
2018-12-16T08:42:35.805Z,18.30
2018-12-16T08:43:35.790Z,17.30
2018-12-16T08:44:35.782Z,18.10
2018-12-16T08:45:35.772Z,18.50
2018-12-16T08:46:35.754Z,17.80
2018-12-16T08:47:35.747Z,18.10
2018-12-16T08:48:35.739Z,18.00
2018-12-16T08:49:35.723Z,18.60
2018-12-16T08:50:35.713Z,18.40
2018-12-16T08:51:35.699Z,17.60
2018-12-16T08:52:35.688Z,18.10
2018-12-16T08:53:35.675Z,19.20
2018-12-16T08:54:36.592Z,17.60
2018-12-16T08:55:35.655Z,17.60
2018-12-16T08:56:35.641Z,17.00
2018-12-16T08:57:35.628Z,16.20
2018-12-16T08:58:35.622Z,16.70
2018-12-16T08:59:35.639Z,17.40
2018-12-16T09:00:35.595Z,16.50
2018-12-16T09:01:35.583Z,17.10
2018-12-16T09:02:35.571Z,15.50
2018-12-16T09:03:35.587Z,16.40
2018-12-16T09:04:35.548Z,14.40
2018-12-16T09:05:35.577Z,15.00
2018-12-16T09:06:35.970Z,14.70
2018-12-16T09:07:37.390Z,14.50
2018-12-16T09:08:35.503Z,15.50
2018-12-16T09:09:35.490Z,15.30
2018-12-16T09:10:35.478Z,15.60
2018-12-16T09:11:35.467Z,15.90
2018-12-16T09:12:35.455Z,16.10
2018-12-16T09:13:35.443Z,15.80
2018-12-16T09:14:35.431Z,16.10
2018-12-16T09:15:35.421Z,16.10
2018-12-16T09:16:35.409Z,16.20
2018-12-16T09:17:35.397Z,15.90
2018-12-16T09:18:35.388Z,16.70
2018-12-16T09:19:35.372Z,17.30
2018-12-16T09:20:35.362Z,17.30
2018-12-16T09:21:35.349Z,17.90
2018-12-16T09:22:35.338Z,17.40
2018-12-16T09:23:35.328Z,18.10
2018-12-16T09:24:37.354Z,17.10
2018-12-16T09:25:35.304Z,16.50
2018-12-16T09:26:35.288Z,16.50
2018-12-16T09:27:35.281Z,16.80
2018-12-16T09:28:35.275Z,16.20
2018-12-16T09:29:35.257Z,15.70
2018-12-16T09:30:35.246Z,16.20
2018-12-16T09:31:35.234Z,15.40
2018-12-16T09:32:35.220Z,15.00
2018-12-16T09:33:35.211Z,15.40
2018-12-16T09:34:35.199Z,15.40
2018-12-16T09:35:35.187Z,15.60
2018-12-16T09:36:35.176Z,14.80
2018-12-16T09:37:35.167Z,15.60
2018-12-16T09:38:35.154Z,15.10
2018-12-16T09:39:35.141Z,16.00
2018-12-16T09:40:35.138Z,15.20
2018-12-16T09:41:35.121Z,15.00
2018-12-16T09:42:35.105Z,15.60
2018-12-16T09:43:35.095Z,15.40
2018-12-16T09:44:35.084Z,15.40
2018-12-16T09:45:35.073Z,14.70
2018-12-16T09:46:35.068Z,15.90
2018-12-16T09:47:35.046Z,15.70
2018-12-16T09:48:35.037Z,15.60
2018-12-16T09:49:35.026Z,15.20
2018-12-16T09:50:35.012Z,15.80
2018-12-16T09:51:35.006Z,15.30
2018-12-16T09:52:34.991Z,15.30
2018-12-16T09:53:34.979Z,14.10
2018-12-16T09:54:34.967Z,13.60
2018-12-16T09:55:34.953Z,14.90
2018-12-16T09:56:34.950Z,14.80
2018-12-16T09:57:34.931Z,14.60
2018-12-16T09:58:34.920Z,15.00
2018-12-16T09:59:34.916Z,14.90
2018-12-16T10:00:34.898Z,14.40
2018-12-16T10:01:34.883Z,15.20
2018-12-16T10:02:34.875Z,14.70
2018-12-16T10:03:34.863Z,15.20
2018-12-16T10:04:34.854Z,14.70
2018-12-16T10:05:34.839Z,14.70
2018-12-16T10:06:34.830Z,15.50
2018-12-16T10:07:34.819Z,15.00
2018-12-16T10:08:34.804Z,14.20
2018-12-16T10:09:34.795Z,14.40
2018-12-16T10:10:34.862Z,14.90
2018-12-16T10:11:34.770Z,14.60
2018-12-16T10:12:34.759Z,14.70
2018-12-16T10:13:34.747Z,14.60
2018-12-16T10:14:34.738Z,14.90
2018-12-16T10:15:34.728Z,14.30
2018-12-16T10:16:34.714Z,15.10
2018-12-16T10:17:34.701Z,15.20
2018-12-16T10:18:34.687Z,15.40
2018-12-16T10:19:34.681Z,15.30
2018-12-16T10:20:34.666Z,15.50
2018-12-16T10:21:34.655Z,16.00
2018-12-16T10:22:34.642Z,16.10
2018-12-16T10:23:34.633Z,15.80
2018-12-16T10:24:34.620Z,15.70
2018-12-16T10:25:34.610Z,15.30
2018-12-16T10:26:34.596Z,15.70
2018-12-16T10:27:34.585Z,15.00
2018-12-16T10:28:34.575Z,16.20
2018-12-16T10:29:34.559Z,15.40
2018-12-16T10:30:34.549Z,15.00
2018-12-16T10:31:34.538Z,14.40
2018-12-16T10:32:34.527Z,15.20
2018-12-16T10:33:34.518Z,15.20
2018-12-16T10:34:34.504Z,15.30
2018-12-16T10:35:34.493Z,14.90
2018-12-16T10:36:34.483Z,15.00
2018-12-16T10:37:34.471Z,15.10
2018-12-16T10:38:34.458Z,15.20
2018-12-16T10:39:34.450Z,14.80
2018-12-16T10:40:34.441Z,15.50
2018-12-16T10:41:34.425Z,15.30
2018-12-16T10:42:34.412Z,15.30
2018-12-16T10:43:34.403Z,14.90
2018-12-16T10:44:34.391Z,14.40
2018-12-16T10:45:34.415Z,13.80
2018-12-16T10:46:34.405Z,14.80
2018-12-16T10:47:34.389Z,14.10
2018-12-16T10:48:34.488Z,13.80
2018-12-16T10:49:34.367Z,13.70
2018-12-16T10:50:34.433Z,14.60
2018-12-16T10:51:34.311Z,15.10
2018-12-16T10:52:34.299Z,14.20
2018-12-16T10:53:36.560Z,13.90
2018-12-16T10:54:34.275Z,14.10
2018-12-16T10:55:34.263Z,14.30
2018-12-16T10:56:34.253Z,14.60
2018-12-16T10:57:34.247Z,14.60
2018-12-16T10:58:34.228Z,14.70
2018-12-16T10:59:34.232Z,14.60
2018-12-16T11:00:34.204Z,15.10
2018-12-16T11:01:34.195Z,14.20
2018-12-16T11:02:34.183Z,15.10
2018-12-16T11:03:34.175Z,15.50
2018-12-16T11:04:34.162Z,15.30
2018-12-16T11:05:34.150Z,15.00
2018-12-16T11:06:34.138Z,15.10
2018-12-16T11:07:34.125Z,14.60
2018-12-16T11:08:34.115Z,15.10
2018-12-16T11:09:34.106Z,14.60
2018-12-16T11:10:34.096Z,15.20
2018-12-16T11:11:34.080Z,15.00
2018-12-16T11:12:34.072Z,14.70
2018-12-16T11:13:34.056Z,14.50
2018-12-16T11:14:34.045Z,14.90
2018-12-16T11:15:34.036Z,15.00
2018-12-16T11:16:34.023Z,14.90
2018-12-16T11:17:34.612Z,15.60
2018-12-16T11:18:34.000Z,15.20
2018-12-16T11:19:33.989Z,14.50
2018-12-16T11:20:33.978Z,15.50
2018-12-16T11:21:33.966Z,15.40
2018-12-16T11:22:33.957Z,15.20
2018-12-16T11:23:33.944Z,15.30
2018-12-16T11:24:33.935Z,14.80
2018-12-16T11:25:33.919Z,15.00
2018-12-16T11:26:33.906Z,14.80
2018-12-16T11:27:33.895Z,14.10
2018-12-16T11:28:33.888Z,15.50
2018-12-16T11:29:33.873Z,14.60
2018-12-16T11:30:33.862Z,15.90
2018-12-16T11:31:33.850Z,15.00
2018-12-16T11:32:33.839Z,14.90
2018-12-16T11:33:33.827Z,15.00
2018-12-16T11:34:33.815Z,15.60
2018-12-16T11:35:33.804Z,15.40
2018-12-16T11:36:33.794Z,15.60
2018-12-16T11:37:33.783Z,15.70
2018-12-16T11:38:33.767Z,16.20
2018-12-16T11:39:33.756Z,16.60
2018-12-16T11:40:33.747Z,16.30
2018-12-16T11:41:33.737Z,16.10
2018-12-16T11:42:33.723Z,17.70
2018-12-16T11:43:33.713Z,17.30
2018-12-16T11:44:33.700Z,16.00
2018-12-16T11:45:33.690Z,16.40
2018-12-16T11:46:33.677Z,16.10
2018-12-16T11:47:33.666Z,15.80
2018-12-16T11:48:33.660Z,16.30
2018-12-16T11:49:33.642Z,16.30
2018-12-16T11:50:33.631Z,16.80
2018-12-16T11:51:33.626Z,16.50
2018-12-16T11:52:33.609Z,15.10
2018-12-16T11:53:33.598Z,14.70
2018-12-16T11:54:33.593Z,14.80
2018-12-16T11:55:33.574Z,14.20
2018-12-16T11:56:33.563Z,14.10
2018-12-16T11:57:33.550Z,14.10
2018-12-16T11:58:33.587Z,14.20
2018-12-16T11:59:33.527Z,14.20
2018-12-16T12:00:33.517Z,14.30
2018-12-16T12:01:33.505Z,14.20
2018-12-16T12:02:33.493Z,15.10
2018-12-16T12:03:33.481Z,14.40
2018-12-16T12:04:33.479Z,14.80
2018-12-16T12:05:33.460Z,14.40
2018-12-16T12:06:33.448Z,14.90
2018-12-16T12:07:33.437Z,14.10
2018-12-16T12:08:33.425Z,13.80
2018-12-16T12:09:33.416Z,14.10
2018-12-16T12:10:33.401Z,13.30
2018-12-16T12:11:33.392Z,13.60
2018-12-16T12:12:33.379Z,14.30
2018-12-16T12:13:33.367Z,13.80
2018-12-16T12:14:33.357Z,13.90
2018-12-16T12:15:33.346Z,14.00
2018-12-16T12:16:33.333Z,14.30
2018-12-16T12:17:33.322Z,14.10
2018-12-16T12:18:34.626Z,14.10
2018-12-16T12:19:33.298Z,14.20
2018-12-16T12:20:33.287Z,13.90
2018-12-16T12:21:33.275Z,14.10
2018-12-16T12:22:33.263Z,14.10
2018-12-16T12:23:33.253Z,14.80
2018-12-16T12:24:33.248Z,14.50
2018-12-16T12:25:33.230Z,13.90
2018-12-16T12:26:33.218Z,14.70
2018-12-16T12:27:33.207Z,14.70
2018-12-16T12:28:33.192Z,14.80
2018-12-16T12:29:33.183Z,14.50
2018-12-16T12:30:33.171Z,14.60
2018-12-16T12:31:33.159Z,14.80
2018-12-16T12:32:33.148Z,14.50
2018-12-16T12:33:33.137Z,15.00
2018-12-16T12:34:33.125Z,15.10
2018-12-16T12:35:33.114Z,14.60
2018-12-16T12:36:33.103Z,15.20
2018-12-16T12:37:33.093Z,15.10
2018-12-16T12:38:33.078Z,14.40
2018-12-16T12:39:33.068Z,14.60
2018-12-16T12:40:33.057Z,15.00
2018-12-16T12:41:33.045Z,15.50
2018-12-16T12:42:33.038Z,15.40
2018-12-16T12:43:33.024Z,15.40
2018-12-16T12:44:33.015Z,16.00
2018-12-16T12:45:33.001Z,14.80
2018-12-16T12:46:32.988Z,14.70
2018-12-16T12:47:32.979Z,14.30
2018-12-16T12:48:32.967Z,15.00
2018-12-16T12:49:32.956Z,14.50
2018-12-16T12:50:32.945Z,15.20
2018-12-16T12:51:32.931Z,14.60
2018-12-16T12:52:32.921Z,14.90
2018-12-16T12:53:32.909Z,14.40
2018-12-16T12:54:32.898Z,14.40
2018-12-16T12:55:32.887Z,14.90
2018-12-16T12:56:32.897Z,14.80
2018-12-16T12:57:32.865Z,14.50
2018-12-16T12:58:32.851Z,14.50
2018-12-16T12:59:32.840Z,14.40
2018-12-16T13:00:32.829Z,14.30
2018-12-16T13:01:32.818Z,14.20
2018-12-16T13:02:32.806Z,14.60
2018-12-16T13:03:32.796Z,15.00
2018-12-16T13:04:32.786Z,14.80
2018-12-16T13:05:37.009Z,14.90
2018-12-16T13:06:32.762Z,15.30
2018-12-16T13:07:32.748Z,15.00
2018-12-16T13:08:32.739Z,15.40
2018-12-16T13:09:32.729Z,15.10
2018-12-16T13:10:32.713Z,15.60
2018-12-16T13:11:32.703Z,15.30
2018-12-16T13:12:32.697Z,15.80
2018-12-16T13:13:32.682Z,16.00
2018-12-16T13:14:32.669Z,15.90
2018-12-16T13:15:32.658Z,15.80
2018-12-16T13:16:32.648Z,15.60
2018-12-16T13:17:32.637Z,15.60
2018-12-16T13:18:32.621Z,15.40
2018-12-16T13:19:32.614Z,15.40
2018-12-16T13:20:32.602Z,15.00
2018-12-16T13:21:32.594Z,14.50
2018-12-16T13:22:32.581Z,15.10
2018-12-16T13:23:32.568Z,15.30